sensor_id;sensor_type;location;lat;lon;timestamp;P1;durP1;ratioP1;P2;durP2;ratioP2
815;SDS011;25928;51.062;13.752;2022-08-19T00:00:50;17.27;;;15.50;;
815;SDS011;25928;51.062;13.752;2022-08-19T00:03:16;16.20;;;14.80;;
815;SDS011;25928;51.062;13.752;2022-08-19T00:05:42;17.77;;;16.17;;
815;SDS011;25928;51.062;13.752;2022-08-19T00:08:07;16.60;;;15.10;;
815;SDS011;25928;51.062;13.752;2022-08-19T00:10:33;17.00;;;15.40;;
815;SDS011;25928;51.062;13.752;2022-08-19T00:12:59;18.67;;;16.77;;
815;SDS011;25928;51.062;13.752;2022-08-19T00:15:24;16.73;;;15.27;;
815;SDS011;25928;51.062;13.752;2022-08-19T00:17:50;20.30;;;18.60;;
815;SDS011;25928;51.062;13.752;2022-08-19T00:20:17;17.97;;;16.07;;
815;SDS011;25928;51.062;13.752;2022-08-19T00:22:45;18.03;;;16.40;;
815;SDS011;25928;51.062;13.752;2022-08-19T00:25:12;17.90;;;16.20;;
815;SDS011;25928;51.062;13.752;2022-08-19T00:27:39;20.00;;;18.23;;
815;SDS011;25928;51.062;13.752;2022-08-19T00:30:06;19.47;;;17.70;;
815;SDS011;25928;51.062;13.752;2022-08-19T00:32:32;19.23;;;17.43;;
815;SDS011;25928;51.062;13.752;2022-08-19T00:34:59;18.40;;;16.70;;
815;SDS011;25928;51.062;13.752;2022-08-19T00:37:25;19.60;;;17.90;;
815;SDS011;25928;51.062;13.752;2022-08-19T00:39:51;19.67;;;17.80;;
815;SDS011;25928;51.062;13.752;2022-08-19T00:42:18;20.53;;;18.57;;
815;SDS011;25928;51.062;13.752;2022-08-19T00:44:45;20.47;;;18.27;;
815;SDS011;25928;51.062;13.752;2022-08-19T00:47:10;19.80;;;18.10;;
815;SDS011;25928;51.062;13.752;2022-08-19T00:49:37;19.50;;;17.80;;
815;SDS011;25928;51.062;13.752;2022-08-19T00:54:54;19.67;;;18.00;;
815;SDS011;25928;51.062;13.752;2022-08-19T00:57:22;20.87;;;18.87;;
815;SDS011;25928;51.062;13.752;2022-08-19T00:59:55;19.50;;;17.50;;
815;SDS011;25928;51.062;13.752;2022-08-19T01:02:22;20.10;;;18.27;;
815;SDS011;25928;51.062;13.752;2022-08-19T01:04:48;21.17;;;19.17;;
815;SDS011;25928;51.062;13.752;2022-08-19T01:07:14;20.97;;;19.07;;
815;SDS011;25928;51.062;13.752;2022-08-19T01:09:39;20.07;;;18.27;;
815;SDS011;25928;51.062;13.752;2022-08-19T01:12:05;20.90;;;19.00;;
815;SDS011;25928;51.062;13.752;2022-08-19T01:14:31;20.23;;;18.27;;
815;SDS011;25928;51.062;13.752;2022-08-19T01:16:58;21.27;;;19.33;;
815;SDS011;25928;51.062;13.752;2022-08-19T01:22:05;21.20;;;19.20;;
815;SDS011;25928;51.062;13.752;2022-08-19T01:24:39;22.57;;;20.33;;
815;SDS011;25928;51.062;13.752;2022-08-19T01:27:05;21.70;;;19.60;;
815;SDS011;25928;51.062;13.752;2022-08-19T01:29:32;21.40;;;19.40;;
815;SDS011;25928;51.062;13.752;2022-08-19T01:31:58;22.10;;;20.17;;
815;SDS011;25928;51.062;13.752;2022-08-19T01:34:25;23.77;;;21.57;;
815;SDS011;25928;51.062;13.752;2022-08-19T01:36:51;22.00;;;19.97;;
815;SDS011;25928;51.062;13.752;2022-08-19T01:39:18;22.03;;;20.03;;
815;SDS011;25928;51.062;13.752;2022-08-19T01:41:47;21.43;;;19.30;;
815;SDS011;25928;51.062;13.752;2022-08-19T01:44:13;21.87;;;19.77;;
815;SDS011;25928;51.062;13.752;2022-08-19T01:46:39;22.23;;;20.20;;
815;SDS011;25928;51.062;13.752;2022-08-19T01:49:06;20.67;;;18.83;;
815;SDS011;25928;51.062;13.752;2022-08-19T01:51:32;22.17;;;19.17;;
815;SDS011;25928;51.062;13.752;2022-08-19T01:53:58;21.43;;;19.53;;
815;SDS011;25928;51.062;13.752;2022-08-19T01:56:25;23.10;;;21.10;;
815;SDS011;25928;51.062;13.752;2022-08-19T01:59:02;23.80;;;21.60;;
815;SDS011;25928;51.062;13.752;2022-08-19T02:01:30;24.13;;;21.83;;
815;SDS011;25928;51.062;13.752;2022-08-19T02:03:56;24.03;;;20.37;;
815;SDS011;25928;51.062;13.752;2022-08-19T02:06:23;23.23;;;21.17;;
815;SDS011;25928;51.062;13.752;2022-08-19T02:08:49;24.13;;;21.90;;
815;SDS011;25928;51.062;13.752;2022-08-19T02:11:28;23.17;;;20.90;;
815;SDS011;25928;51.062;13.752;2022-08-19T02:13:56;21.97;;;20.07;;
815;SDS011;25928;51.062;13.752;2022-08-19T02:16:22;23.13;;;20.93;;
815;SDS011;25928;51.062;13.752;2022-08-19T02:18:48;22.37;;;20.13;;
815;SDS011;25928;51.062;13.752;2022-08-19T02:21:14;20.67;;;18.97;;
815;SDS011;25928;51.062;13.752;2022-08-19T02:23:42;22.27;;;20.23;;
815;SDS011;25928;51.062;13.752;2022-08-19T02:26:08;21.30;;;19.30;;
815;SDS011;25928;51.062;13.752;2022-08-19T02:28:35;22.77;;;20.80;;
815;SDS011;25928;51.062;13.752;2022-08-19T02:31:01;21.73;;;19.80;;
815;SDS011;25928;51.062;13.752;2022-08-19T02:33:35;22.87;;;20.90;;
815;SDS011;25928;51.062;13.752;2022-08-19T02:36:02;21.50;;;19.47;;
815;SDS011;25928;51.062;13.752;2022-08-19T02:38:32;22.97;;;20.87;;
815;SDS011;25928;51.062;13.752;2022-08-19T02:41:00;21.13;;;19.13;;
815;SDS011;25928;51.062;13.752;2022-08-19T02:43:27;21.30;;;19.50;;
815;SDS011;25928;51.062;13.752;2022-08-19T02:45:55;21.07;;;19.17;;
815;SDS011;25928;51.062;13.752;2022-08-19T02:48:21;22.40;;;20.50;;
815;SDS011;25928;51.062;13.752;2022-08-19T02:50:49;22.77;;;20.70;;
815;SDS011;25928;51.062;13.752;2022-08-19T02:53:23;23.40;;;21.40;;
815;SDS011;25928;51.062;13.752;2022-08-19T02:55:50;22.77;;;20.60;;
815;SDS011;25928;51.062;13.752;2022-08-19T02:58:17;22.13;;;20.13;;
815;SDS011;25928;51.062;13.752;2022-08-19T03:00:44;22.63;;;20.50;;
815;SDS011;25928;51.062;13.752;2022-08-19T03:03:11;21.40;;;19.70;;
815;SDS011;25928;51.062;13.752;2022-08-19T03:05:37;22.80;;;20.80;;
815;SDS011;25928;51.062;13.752;2022-08-19T03:08:04;20.73;;;19.03;;
815;SDS011;25928;51.062;13.752;2022-08-19T03:10:30;22.10;;;20.10;;
815;SDS011;25928;51.062;13.752;2022-08-19T03:12:57;22.37;;;20.17;;
815;SDS011;25928;51.062;13.752;2022-08-19T03:15:22;23.10;;;20.93;;
815;SDS011;25928;51.062;13.752;2022-08-19T03:17:48;23.00;;;20.97;;
815;SDS011;25928;51.062;13.752;2022-08-19T03:20:14;22.53;;;20.60;;
815;SDS011;25928;51.062;13.752;2022-08-19T03:22:39;22.83;;;20.87;;
815;SDS011;25928;51.062;13.752;2022-08-19T03:25:05;22.87;;;20.77;;
815;SDS011;25928;51.062;13.752;2022-08-19T03:27:31;21.13;;;19.33;;
815;SDS011;25928;51.062;13.752;2022-08-19T03:29:56;25.67;;;23.20;;
815;SDS011;25928;51.062;13.752;2022-08-19T03:32:22;24.53;;;22.33;;
815;SDS011;25928;51.062;13.752;2022-08-19T03:34:48;25.93;;;23.73;;
815;SDS011;25928;51.062;13.752;2022-08-19T03:37:14;23.23;;;21.13;;
815;SDS011;25928;51.062;13.752;2022-08-19T03:39:40;22.03;;;19.93;;
815;SDS011;25928;51.062;13.752;2022-08-19T03:42:07;22.00;;;20.10;;
815;SDS011;25928;51.062;13.752;2022-08-19T03:44:33;22.43;;;20.47;;
815;SDS011;25928;51.062;13.752;2022-08-19T03:47:01;23.50;;;21.40;;
815;SDS011;25928;51.062;13.752;2022-08-19T03:49:27;22.97;;;21.00;;
815;SDS011;25928;51.062;13.752;2022-08-19T03:51:55;22.73;;;20.63;;
815;SDS011;25928;51.062;13.752;2022-08-19T03:54:23;22.33;;;20.40;;
815;SDS011;25928;51.062;13.752;2022-08-19T03:56:50;21.80;;;20.00;;
815;SDS011;25928;51.062;13.752;2022-08-19T03:59:29;22.37;;;20.47;;
815;SDS011;25928;51.062;13.752;2022-08-19T04:01:58;22.93;;;20.70;;
815;SDS011;25928;51.062;13.752;2022-08-19T04:04:26;22.50;;;20.60;;
815;SDS011;25928;51.062;13.752;2022-08-19T04:06:53;24.10;;;22.00;;
815;SDS011;25928;51.062;13.752;2022-08-19T04:09:19;23.60;;;21.53;;
815;SDS011;25928;51.062;13.752;2022-08-19T04:11:46;22.20;;;20.30;;
815;SDS011;25928;51.062;13.752;2022-08-19T04:14:16;23.93;;;21.80;;
815;SDS011;25928;51.062;13.752;2022-08-19T04:16:43;22.20;;;20.20;;
815;SDS011;25928;51.062;13.752;2022-08-19T04:19:10;22.60;;;20.70;;
815;SDS011;25928;51.062;13.752;2022-08-19T04:21:36;24.33;;;21.87;;
815;SDS011;25928;51.062;13.752;2022-08-19T04:24:02;23.30;;;21.10;;
815;SDS011;25928;51.062;13.752;2022-08-19T04:26:34;24.03;;;22.03;;
815;SDS011;25928;51.062;13.752;2022-08-19T04:29:05;22.30;;;20.40;;
815;SDS011;25928;51.062;13.752;2022-08-19T04:31:36;23.97;;;21.77;;
815;SDS011;25928;51.062;13.752;2022-08-19T04:34:02;23.60;;;21.37;;
815;SDS011;25928;51.062;13.752;2022-08-19T04:36:31;23.77;;;21.77;;
815;SDS011;25928;51.062;13.752;2022-08-19T04:38:59;24.33;;;22.13;;
815;SDS011;25928;51.062;13.752;2022-08-19T04:41:28;24.43;;;22.33;;
815;SDS011;25928;51.062;13.752;2022-08-19T04:44:13;24.30;;;22.10;;
815;SDS011;25928;51.062;13.752;2022-08-19T04:46:43;24.83;;;22.53;;
815;SDS011;25928;51.062;13.752;2022-08-19T04:49:09;24.07;;;21.87;;
815;SDS011;25928;51.062;13.752;2022-08-19T04:51:36;23.87;;;21.57;;
815;SDS011;25928;51.062;13.752;2022-08-19T04:54:04;24.60;;;22.40;;
815;SDS011;25928;51.062;13.752;2022-08-19T04:56:30;25.07;;;22.80;;
815;SDS011;25928;51.062;13.752;2022-08-19T04:58:56;24.97;;;22.77;;
815;SDS011;25928;51.062;13.752;2022-08-19T05:01:31;23.67;;;21.67;;
815;SDS011;25928;51.062;13.752;2022-08-19T05:03:58;25.33;;;23.03;;
815;SDS011;25928;51.062;13.752;2022-08-19T05:06:25;26.00;;;23.47;;
815;SDS011;25928;51.062;13.752;2022-08-19T05:08:52;23.83;;;21.73;;
815;SDS011;25928;51.062;13.752;2022-08-19T05:11:19;24.07;;;21.87;;
815;SDS011;25928;51.062;13.752;2022-08-19T05:13:50;23.33;;;21.23;;
815;SDS011;25928;51.062;13.752;2022-08-19T05:16:17;24.77;;;22.13;;
815;SDS011;25928;51.062;13.752;2022-08-19T05:18:45;23.07;;;21.10;;
815;SDS011;25928;51.062;13.752;2022-08-19T05:21:30;23.20;;;21.20;;
815;SDS011;25928;51.062;13.752;2022-08-19T05:24:16;21.80;;;19.90;;
815;SDS011;25928;51.062;13.752;2022-08-19T05:26:43;25.23;;;22.77;;
815;SDS011;25928;51.062;13.752;2022-08-19T05:29:11;24.20;;;22.00;;
815;SDS011;25928;51.062;13.752;2022-08-19T05:31:45;25.20;;;22.63;;
815;SDS011;25928;51.062;13.752;2022-08-19T05:34:11;25.60;;;23.20;;
815;SDS011;25928;51.062;13.752;2022-08-19T05:36:40;22.60;;;20.50;;
815;SDS011;25928;51.062;13.752;2022-08-19T05:39:08;23.70;;;21.43;;
815;SDS011;25928;51.062;13.752;2022-08-19T05:41:37;24.73;;;22.33;;
815;SDS011;25928;51.062;13.752;2022-08-19T05:44:09;22.90;;;20.97;;
815;SDS011;25928;51.062;13.752;2022-08-19T05:46:36;23.60;;;21.30;;
815;SDS011;25928;51.062;13.752;2022-08-19T05:49:06;23.53;;;21.43;;
815;SDS011;25928;51.062;13.752;2022-08-19T05:51:33;24.97;;;22.53;;
815;SDS011;25928;51.062;13.752;2022-08-19T05:54:00;26.63;;;23.97;;
815;SDS011;25928;51.062;13.752;2022-08-19T05:56:26;23.93;;;21.67;;
815;SDS011;25928;51.062;13.752;2022-08-19T05:58:52;23.40;;;20.97;;
815;SDS011;25928;51.062;13.752;2022-08-19T06:01:19;24.23;;;22.13;;
815;SDS011;25928;51.062;13.752;2022-08-19T06:03:45;25.70;;;23.20;;
815;SDS011;25928;51.062;13.752;2022-08-19T06:06:12;21.37;;;19.50;;
815;SDS011;25928;51.062;13.752;2022-08-19T06:08:39;23.00;;;20.90;;
815;SDS011;25928;51.062;13.752;2022-08-19T06:13:45;21.23;;;19.13;;
815;SDS011;25928;51.062;13.752;2022-08-19T06:16:19;19.13;;;17.43;;
815;SDS011;25928;51.062;13.752;2022-08-19T06:18:47;17.60;;;16.13;;
815;SDS011;25928;51.062;13.752;2022-08-19T06:21:23;17.83;;;16.27;;
815;SDS011;25928;51.062;13.752;2022-08-19T06:23:52;15.77;;;14.30;;
815;SDS011;25928;51.062;13.752;2022-08-19T06:26:19;16.07;;;14.53;;
815;SDS011;25928;51.062;13.752;2022-08-19T06:28:45;16.83;;;15.33;;
815;SDS011;25928;51.062;13.752;2022-08-19T06:31:15;15.57;;;14.27;;
815;SDS011;25928;51.062;13.752;2022-08-19T06:33:47;15.30;;;14.00;;
815;SDS011;25928;51.062;13.752;2022-08-19T06:36:17;16.20;;;14.70;;
815;SDS011;25928;51.062;13.752;2022-08-19T06:38:51;15.43;;;14.07;;
815;SDS011;25928;51.062;13.752;2022-08-19T06:41:17;16.67;;;15.13;;
815;SDS011;25928;51.062;13.752;2022-08-19T06:43:43;16.40;;;14.60;;
815;SDS011;25928;51.062;13.752;2022-08-19T06:46:09;16.00;;;14.60;;
815;SDS011;25928;51.062;13.752;2022-08-19T06:48:37;17.53;;;15.93;;
815;SDS011;25928;51.062;13.752;2022-08-19T06:51:08;16.73;;;15.23;;
815;SDS011;25928;51.062;13.752;2022-08-19T06:53:34;17.77;;;15.90;;
815;SDS011;25928;51.062;13.752;2022-08-19T06:56:00;19.93;;;17.97;;
815;SDS011;25928;51.062;13.752;2022-08-19T06:58:27;18.23;;;16.40;;
815;SDS011;25928;51.062;13.752;2022-08-19T07:00:57;20.07;;;18.00;;
815;SDS011;25928;51.062;13.752;2022-08-19T07:03:43;18.93;;;17.00;;
815;SDS011;25928;51.062;13.752;2022-08-19T07:06:12;18.73;;;16.93;;
815;SDS011;25928;51.062;13.752;2022-08-19T07:08:42;18.60;;;16.80;;
815;SDS011;25928;51.062;13.752;2022-08-19T07:11:09;19.60;;;17.87;;
815;SDS011;25928;51.062;13.752;2022-08-19T07:13:38;20.50;;;18.70;;
815;SDS011;25928;51.062;13.752;2022-08-19T07:16:09;19.10;;;17.20;;
815;SDS011;25928;51.062;13.752;2022-08-19T07:18:37;18.80;;;17.10;;
815;SDS011;25928;51.062;13.752;2022-08-19T07:21:14;20.67;;;18.57;;
815;SDS011;25928;51.062;13.752;2022-08-19T07:23:44;20.83;;;18.73;;
815;SDS011;25928;51.062;13.752;2022-08-19T07:26:13;21.07;;;18.97;;
815;SDS011;25928;51.062;13.752;2022-08-19T07:28:41;21.93;;;19.00;;
815;SDS011;25928;51.062;13.752;2022-08-19T07:31:10;22.77;;;20.67;;
815;SDS011;25928;51.062;13.752;2022-08-19T07:33:37;20.77;;;18.67;;
815;SDS011;25928;51.062;13.752;2022-08-19T07:36:11;22.17;;;19.90;;
815;SDS011;25928;51.062;13.752;2022-08-19T07:38:38;23.03;;;20.87;;
815;SDS011;25928;51.062;13.752;2022-08-19T07:41:10;25.93;;;23.13;;
815;SDS011;25928;51.062;13.752;2022-08-19T07:43:37;25.90;;;23.30;;
815;SDS011;25928;51.062;13.752;2022-08-19T07:46:10;26.43;;;22.33;;
815;SDS011;25928;51.062;13.752;2022-08-19T07:48:37;23.30;;;21.07;;
815;SDS011;25928;51.062;13.752;2022-08-19T07:51:03;23.30;;;21.10;;
815;SDS011;25928;51.062;13.752;2022-08-19T07:53:35;24.83;;;22.23;;
815;SDS011;25928;51.062;13.752;2022-08-19T07:56:02;23.73;;;21.23;;
815;SDS011;25928;51.062;13.752;2022-08-19T07:58:37;22.90;;;20.60;;
815;SDS011;25928;51.062;13.752;2022-08-19T08:01:10;23.70;;;21.30;;
815;SDS011;25928;51.062;13.752;2022-08-19T08:03:38;23.53;;;21.23;;
815;SDS011;25928;51.062;13.752;2022-08-19T08:06:22;24.63;;;21.57;;
815;SDS011;25928;51.062;13.752;2022-08-19T08:09:07;23.90;;;21.50;;
815;SDS011;25928;51.062;13.752;2022-08-19T08:11:46;24.87;;;22.50;;
815;SDS011;25928;51.062;13.752;2022-08-19T08:14:25;24.23;;;21.73;;
815;SDS011;25928;51.062;13.752;2022-08-19T08:16:57;25.03;;;22.07;;
815;SDS011;25928;51.062;13.752;2022-08-19T08:19:24;25.13;;;22.53;;
815;SDS011;25928;51.062;13.752;2022-08-19T08:21:51;24.67;;;22.03;;
815;SDS011;25928;51.062;13.752;2022-08-19T08:24:18;25.13;;;22.83;;
815;SDS011;25928;51.062;13.752;2022-08-19T08:26:45;24.17;;;21.83;;
815;SDS011;25928;51.062;13.752;2022-08-19T08:29:11;23.43;;;21.23;;
815;SDS011;25928;51.062;13.752;2022-08-19T08:31:37;24.83;;;22.53;;
815;SDS011;25928;51.062;13.752;2022-08-19T08:34:03;21.93;;;19.93;;
815;SDS011;25928;51.062;13.752;2022-08-19T08:36:29;23.30;;;21.20;;
815;SDS011;25928;51.062;13.752;2022-08-19T08:38:58;21.53;;;19.63;;
815;SDS011;25928;51.062;13.752;2022-08-19T08:41:33;20.13;;;18.33;;
815;SDS011;25928;51.062;13.752;2022-08-19T08:44:01;18.43;;;16.63;;
815;SDS011;25928;51.062;13.752;2022-08-19T08:52:11;16.23;;;14.83;;
815;SDS011;25928;51.062;13.752;2022-08-19T08:54:53;16.60;;;15.17;;
815;SDS011;25928;51.062;13.752;2022-08-19T08:59:56;17.43;;;16.03;;
815;SDS011;25928;51.062;13.752;2022-08-19T09:02:25;15.63;;;14.33;;
815;SDS011;25928;51.062;13.752;2022-08-19T09:04:51;16.30;;;14.90;;
815;SDS011;25928;51.062;13.752;2022-08-19T09:09:51;16.47;;;14.83;;
815;SDS011;25928;51.062;13.752;2022-08-19T09:15:12;18.10;;;16.50;;
815;SDS011;25928;51.062;13.752;2022-08-19T09:17:39;17.87;;;16.20;;
815;SDS011;25928;51.062;13.752;2022-08-19T09:22:48;19.73;;;16.67;;
815;SDS011;25928;51.062;13.752;2022-08-19T09:25:18;18.90;;;17.00;;
815;SDS011;25928;51.062;13.752;2022-08-19T09:27:47;17.43;;;15.80;;
815;SDS011;25928;51.062;13.752;2022-08-19T09:30:19;17.57;;;15.60;;
815;SDS011;25928;51.062;13.752;2022-08-19T09:32:47;16.93;;;15.53;;
815;SDS011;25928;51.062;13.752;2022-08-19T09:35:13;19.67;;;17.93;;
815;SDS011;25928;51.062;13.752;2022-08-19T09:37:40;18.47;;;16.87;;
815;SDS011;25928;51.062;13.752;2022-08-19T09:40:08;18.10;;;16.60;;
815;SDS011;25928;51.062;13.752;2022-08-19T09:42:34;18.83;;;17.20;;
815;SDS011;25928;51.062;13.752;2022-08-19T09:44:59;17.87;;;16.27;;
815;SDS011;25928;51.062;13.752;2022-08-19T09:47:25;17.40;;;15.90;;
815;SDS011;25928;51.062;13.752;2022-08-19T09:49:51;18.77;;;16.97;;
815;SDS011;25928;51.062;13.752;2022-08-19T09:52:17;18.73;;;17.13;;
815;SDS011;25928;51.062;13.752;2022-08-19T09:54:43;17.03;;;15.73;;
815;SDS011;25928;51.062;13.752;2022-08-19T09:57:08;18.40;;;16.70;;
815;SDS011;25928;51.062;13.752;2022-08-19T09:59:34;19.53;;;17.83;;
815;SDS011;25928;51.062;13.752;2022-08-19T10:02:00;18.67;;;16.20;;
815;SDS011;25928;51.062;13.752;2022-08-19T10:04:27;18.33;;;16.63;;
815;SDS011;25928;51.062;13.752;2022-08-19T10:07:12;17.30;;;15.77;;
815;SDS011;25928;51.062;13.752;2022-08-19T10:09:38;17.10;;;15.50;;
815;SDS011;25928;51.062;13.752;2022-08-19T10:12:05;17.00;;;15.40;;
815;SDS011;25928;51.062;13.752;2022-08-19T10:14:32;15.27;;;13.90;;
815;SDS011;25928;51.062;13.752;2022-08-19T10:16:58;16.80;;;14.60;;
815;SDS011;25928;51.062;13.752;2022-08-19T10:19:25;13.67;;;12.60;;
815;SDS011;25928;51.062;13.752;2022-08-19T10:21:51;13.63;;;12.47;;
815;SDS011;25928;51.062;13.752;2022-08-19T10:24:17;13.90;;;12.70;;
815;SDS011;25928;51.062;13.752;2022-08-19T10:26:44;14.20;;;13.00;;
815;SDS011;25928;51.062;13.752;2022-08-19T10:29:13;12.43;;;11.43;;
815;SDS011;25928;51.062;13.752;2022-08-19T10:31:40;12.13;;;11.10;;
815;SDS011;25928;51.062;13.752;2022-08-19T10:34:06;12.23;;;11.03;;
815;SDS011;25928;51.062;13.752;2022-08-19T10:36:33;13.13;;;11.93;;
815;SDS011;25928;51.062;13.752;2022-08-19T10:39:01;13.07;;;11.97;;
815;SDS011;25928;51.062;13.752;2022-08-19T10:41:34;12.30;;;11.30;;
815;SDS011;25928;51.062;13.752;2022-08-19T10:44:03;11.77;;;10.80;;
815;SDS011;25928;51.062;13.752;2022-08-19T10:46:31;11.70;;;10.67;;
815;SDS011;25928;51.062;13.752;2022-08-19T10:49:02;10.57;;;9.77;;
815;SDS011;25928;51.062;13.752;2022-08-19T10:51:29;11.07;;;10.17;;
815;SDS011;25928;51.062;13.752;2022-08-19T10:54:13;11.13;;;10.30;;
815;SDS011;25928;51.062;13.752;2022-08-19T10:56:39;11.90;;;10.90;;
815;SDS011;25928;51.062;13.752;2022-08-19T10:59:25;12.23;;;11.23;;
815;SDS011;25928;51.062;13.752;2022-08-19T11:01:58;10.50;;;9.60;;
815;SDS011;25928;51.062;13.752;2022-08-19T11:04:25;10.23;;;9.43;;
815;SDS011;25928;51.062;13.752;2022-08-19T11:06:52;10.00;;;9.10;;
815;SDS011;25928;51.062;13.752;2022-08-19T11:09:19;11.57;;;10.57;;
815;SDS011;25928;51.062;13.752;2022-08-19T11:11:49;10.33;;;9.43;;
815;SDS011;25928;51.062;13.752;2022-08-19T11:14:16;10.03;;;9.23;;
815;SDS011;25928;51.062;13.752;2022-08-19T11:16:44;9.23;;;8.53;;
815;SDS011;25928;51.062;13.752;2022-08-19T11:19:10;10.87;;;10.03;;
815;SDS011;25928;51.062;13.752;2022-08-19T11:21:42;10.20;;;9.37;;
815;SDS011;25928;51.062;13.752;2022-08-19T11:24:11;11.40;;;10.50;;
815;SDS011;25928;51.062;13.752;2022-08-19T11:26:43;12.63;;;11.60;;
815;SDS011;25928;51.062;13.752;2022-08-19T11:29:10;12.93;;;11.83;;
815;SDS011;25928;51.062;13.752;2022-08-19T11:31:38;13.10;;;12.00;;
815;SDS011;25928;51.062;13.752;2022-08-19T11:34:06;13.93;;;12.83;;
815;SDS011;25928;51.062;13.752;2022-08-19T11:36:36;14.10;;;12.90;;
815;SDS011;25928;51.062;13.752;2022-08-19T11:39:04;14.33;;;12.93;;
815;SDS011;25928;51.062;13.752;2022-08-19T11:41:31;15.47;;;14.07;;
815;SDS011;25928;51.062;13.752;2022-08-19T11:43:57;14.13;;;12.93;;
815;SDS011;25928;51.062;13.752;2022-08-19T11:46:23;15.63;;;14.33;;
815;SDS011;25928;51.062;13.752;2022-08-19T11:48:50;16.03;;;14.43;;
815;SDS011;25928;51.062;13.752;2022-08-19T11:51:18;14.63;;;13.43;;
815;SDS011;25928;51.062;13.752;2022-08-19T11:53:46;15.33;;;13.87;;
815;SDS011;25928;51.062;13.752;2022-08-19T11:56:12;15.20;;;14.00;;
815;SDS011;25928;51.062;13.752;2022-08-19T11:58:39;16.10;;;14.60;;
815;SDS011;25928;51.062;13.752;2022-08-19T12:01:14;15.50;;;14.20;;
815;SDS011;25928;51.062;13.752;2022-08-19T12:03:42;16.90;;;15.50;;
815;SDS011;25928;51.062;13.752;2022-08-19T12:06:13;16.50;;;15.10;;
815;SDS011;25928;51.062;13.752;2022-08-19T12:08:41;18.33;;;16.63;;
815;SDS011;25928;51.062;13.752;2022-08-19T12:11:14;20.10;;;18.30;;
815;SDS011;25928;51.062;13.752;2022-08-19T12:13:40;20.77;;;18.67;;
815;SDS011;25928;51.062;13.752;2022-08-19T12:16:18;20.53;;;18.63;;
815;SDS011;25928;51.062;13.752;2022-08-19T12:18:48;22.90;;;20.80;;
815;SDS011;25928;51.062;13.752;2022-08-19T12:21:16;23.27;;;21.07;;
815;SDS011;25928;51.062;13.752;2022-08-19T12:23:46;22.83;;;20.70;;
815;SDS011;25928;51.062;13.752;2022-08-19T12:26:13;24.63;;;22.13;;
815;SDS011;25928;51.062;13.752;2022-08-19T12:28:38;23.53;;;21.33;;
815;SDS011;25928;51.062;13.752;2022-08-19T12:31:10;21.83;;;19.83;;
815;SDS011;25928;51.062;13.752;2022-08-19T12:33:37;22.77;;;20.57;;
815;SDS011;25928;51.062;13.752;2022-08-19T12:36:04;21.87;;;19.87;;
815;SDS011;25928;51.062;13.752;2022-08-19T12:38:42;23.90;;;21.60;;
815;SDS011;25928;51.062;13.752;2022-08-19T12:41:13;22.40;;;20.30;;
815;SDS011;25928;51.062;13.752;2022-08-19T12:43:40;23.03;;;20.77;;
815;SDS011;25928;51.062;13.752;2022-08-19T12:46:10;22.83;;;20.73;;
815;SDS011;25928;51.062;13.752;2022-08-19T12:48:37;23.07;;;20.60;;
815;SDS011;25928;51.062;13.752;2022-08-19T12:51:11;23.77;;;21.47;;
815;SDS011;25928;51.062;13.752;2022-08-19T12:53:38;23.83;;;21.70;;
815;SDS011;25928;51.062;13.752;2022-08-19T12:56:17;23.47;;;21.37;;
815;SDS011;25928;51.062;13.752;2022-08-19T12:58:43;23.40;;;21.10;;
815;SDS011;25928;51.062;13.752;2022-08-19T13:01:15;22.13;;;20.03;;
815;SDS011;25928;51.062;13.752;2022-08-19T13:03:42;20.03;;;18.30;;
815;SDS011;25928;51.062;13.752;2022-08-19T13:06:14;21.50;;;19.30;;
815;SDS011;25928;51.062;13.752;2022-08-19T13:08:40;21.67;;;19.47;;
815;SDS011;25928;51.062;13.752;2022-08-19T13:11:14;20.70;;;18.70;;
815;SDS011;25928;51.062;13.752;2022-08-19T13:13:43;22.23;;;20.00;;
815;SDS011;25928;51.062;13.752;2022-08-19T13:16:16;22.17;;;20.07;;
815;SDS011;25928;51.062;13.752;2022-08-19T13:18:44;22.60;;;20.47;;
815;SDS011;25928;51.062;13.752;2022-08-19T13:21:12;24.00;;;21.73;;
815;SDS011;25928;51.062;13.752;2022-08-19T13:23:39;22.70;;;20.70;;
815;SDS011;25928;51.062;13.752;2022-08-19T13:26:18;25.50;;;23.13;;
815;SDS011;25928;51.062;13.752;2022-08-19T13:28:44;24.43;;;22.13;;
815;SDS011;25928;51.062;13.752;2022-08-19T13:31:29;26.53;;;23.90;;
815;SDS011;25928;51.062;13.752;2022-08-19T13:34:16;27.97;;;25.23;;
815;SDS011;25928;51.062;13.752;2022-08-19T13:36:44;26.50;;;23.90;;
815;SDS011;25928;51.062;13.752;2022-08-19T13:39:10;25.53;;;22.83;;
815;SDS011;25928;51.062;13.752;2022-08-19T13:41:36;26.33;;;23.83;;
815;SDS011;25928;51.062;13.752;2022-08-19T13:44:02;26.03;;;23.63;;
815;SDS011;25928;51.062;13.752;2022-08-19T13:46:29;26.27;;;23.60;;
815;SDS011;25928;51.062;13.752;2022-08-19T13:48:55;24.27;;;21.67;;
815;SDS011;25928;51.062;13.752;2022-08-19T13:51:21;25.70;;;23.30;;
815;SDS011;25928;51.062;13.752;2022-08-19T13:53:47;25.13;;;22.63;;
815;SDS011;25928;51.062;13.752;2022-08-19T13:56:14;25.93;;;23.37;;
815;SDS011;25928;51.062;13.752;2022-08-19T13:58:41;25.20;;;22.70;;
815;SDS011;25928;51.062;13.752;2022-08-19T14:01:11;27.60;;;24.97;;
815;SDS011;25928;51.062;13.752;2022-08-19T14:03:37;27.73;;;25.03;;
815;SDS011;25928;51.062;13.752;2022-08-19T14:06:03;26.67;;;24.27;;
815;SDS011;25928;51.062;13.752;2022-08-19T14:08:36;27.73;;;25.13;;
815;SDS011;25928;51.062;13.752;2022-08-19T14:11:13;29.33;;;26.03;;
815;SDS011;25928;51.062;13.752;2022-08-19T14:13:39;28.03;;;25.07;;
815;SDS011;25928;51.062;13.752;2022-08-19T14:16:12;26.10;;;23.60;;
815;SDS011;25928;51.062;13.752;2022-08-19T14:18:38;27.37;;;24.70;;
815;SDS011;25928;51.062;13.752;2022-08-19T14:21:18;26.57;;;23.87;;
815;SDS011;25928;51.062;13.752;2022-08-19T14:23:47;29.60;;;26.50;;
815;SDS011;25928;51.062;13.752;2022-08-19T14:26:15;28.07;;;25.37;;
815;SDS011;25928;51.062;13.752;2022-08-19T14:28:42;26.30;;;23.67;;
815;SDS011;25928;51.062;13.752;2022-08-19T14:31:15;28.20;;;25.40;;
815;SDS011;25928;51.062;13.752;2022-08-19T14:33:43;32.23;;;29.00;;
815;SDS011;25928;51.062;13.752;2022-08-19T14:36:15;31.57;;;28.47;;
815;SDS011;25928;51.062;13.752;2022-08-19T14:38:42;32.17;;;29.03;;
815;SDS011;25928;51.062;13.752;2022-08-19T14:41:18;32.67;;;29.27;;
815;SDS011;25928;51.062;13.752;2022-08-19T14:43:46;34.20;;;30.67;;
815;SDS011;25928;51.062;13.752;2022-08-19T14:46:15;33.20;;;29.83;;
815;SDS011;25928;51.062;13.752;2022-08-19T14:48:42;31.43;;;28.40;;
815;SDS011;25928;51.062;13.752;2022-08-19T14:51:15;31.97;;;28.67;;
815;SDS011;25928;51.062;13.752;2022-08-19T14:53:42;33.80;;;30.50;;
815;SDS011;25928;51.062;13.752;2022-08-19T14:56:12;33.50;;;30.20;;
815;SDS011;25928;51.062;13.752;2022-08-19T14:58:40;35.77;;;31.97;;
815;SDS011;25928;51.062;13.752;2022-08-19T15:01:12;33.07;;;29.67;;
815;SDS011;25928;51.062;13.752;2022-08-19T15:03:38;30.33;;;27.33;;
815;SDS011;25928;51.062;13.752;2022-08-19T15:06:12;30.77;;;27.87;;
815;SDS011;25928;51.062;13.752;2022-08-19T15:08:38;34.37;;;30.80;;